^^
Station Historical Data
Daily Summary for April 2, 2017 Units:  Both    English   Metric
« Previous Day
Next Day »
Daily Weekly Monthly Yearly Custom
  High: Low: Average:
Temperature: 86.2 °F /  30.1 °C 56.7 °F /  13.7 °C 68.9 °F /  20.5 °C
Dew Point: 49.8 °F /  9.9 °C 42.3 °F /  5.7 °C 44.8 °F /  7.1 °C
Humidity: 64% 23% 44%
Wind Speed: 10.1mph /  16.3km/h - 1.2mph /  1.9km/h
Wind Gust: 11.0mph /  17.7km/h - -
Wind- - ESE
Pressure: 30.38 in /  1028.7 hPa 30.27 in /  1024.9 hPa -
Precipitation: 0.00 in /  0 mm    
Historical Graphs
 
 
Tabular Data for April 2, 2017
Time Temperature Dew Point Pressure Wind Wind Speed Wind Gust Humidity Rainfall Rate (Hourly) solar Conditions
00:00 60.8 °F /  16 °C 42.6 °F /  5.9 °C 30.36in /  1028hPa Calm     51% 0.00in /  0mm 0.0 W/m2
00:06 60.6 °F /  15.9 °C 42.4 °F /  5.8 °C 30.36in /  1028hPa Calm     51% 0.00in /  0mm 0.0 W/m2
00:12 60.4 °F /  15.8 °C 42.3 °F /  5.7 °C 30.36in /  1028hPa Calm   1.0mph /  1.6km/h 51% 0.00in /  0mm 0.0 W/m2
00:18 60.3 °F /  15.7 °C 42.6 °F /  5.9 °C 30.36in /  1028hPa Calm   1.0mph /  1.6km/h 52% 0.00in /  0mm 0.0 W/m2
00:24 60.1 °F /  15.6 °C 42.4 °F /  5.8 °C 30.36in /  1028hPa Calm     52% 0.00in /  0mm 0.0 W/m2
00:31 60.1 °F /  15.6 °C 43.0 °F /  6.1 °C 30.36in /  1028hPa Calm     53% 0.00in /  0mm 0.0 W/m2
00:37 59.7 °F /  15.4 °C 42.6 °F /  5.9 °C 30.35in /  1027.7hPa Calm     53% 0.00in /  0mm 0.0 W/m2
00:43 59.5 °F /  15.3 °C 42.4 °F /  5.8 °C 30.35in /  1027.7hPa Calm     53% 0.00in /  0mm 0.0 W/m2
00:49 59.5 °F /  15.3 °C 42.8 °F /  6 °C 30.35in /  1027.7hPa Calm     54% 0.00in /  0mm 0.0 W/m2
00:55 59.4 °F /  15.2 °C 42.8 °F /  6 °C 30.35in /  1027.7hPa Calm   1.0mph /  1.6km/h 54% 0.00in /  0mm 0.0 W/m2
01:01 59.2 °F /  15.1 °C 42.6 °F /  5.9 °C 30.35in /  1027.7hPa Calm     54% 0.00in /  0mm 0.0 W/m2
01:07 59.2 °F /  15.1 °C 42.6 °F /  5.9 °C 30.35in /  1027.7hPa Calm     54% 0.00in /  0mm 0.0 W/m2
01:13 59.2 °F /  15.1 °C 42.6 °F /  5.9 °C 30.35in /  1027.7hPa ESE 2.0mph /  3.2km/h 2.0mph /  3.2km/h 54% 0.00in /  0mm 0.0 W/m2
01:20 59.2 °F /  15.1 °C 43.0 °F /  6.1 °C 30.35in /  1027.7hPa Calm   1.0mph /  1.6km/h 55% 0.00in /  0mm 0.0 W/m2
01:26 59.2 °F /  15.1 °C 43.0 °F /  6.1 °C 30.35in /  1027.7hPa Calm   1.0mph /  1.6km/h 55% 0.00in /  0mm 0.0 W/m2
01:32 59.2 °F /  15.1 °C 43.0 °F /  6.1 °C 30.35in /  1027.7hPa Calm   1.0mph /  1.6km/h 55% 0.00in /  0mm 0.0 W/m2
01:38 59.0 °F /  15 °C 42.8 °F /  6 °C 30.35in /  1027.7hPa Calm     55% 0.00in /  0mm 0.0 W/m2
01:44 59.0 °F /  15 °C 42.8 °F /  6 °C 30.35in /  1027.7hPa Calm     55% 0.00in /  0mm 0.0 W/m2
01:50 59.0 °F /  15 °C 42.8 °F /  6 °C 30.35in /  1027.7hPa Calm     55% 0.00in /  0mm 0.0 W/m2
01:56 59.0 °F /  15 °C 42.8 °F /  6 °C 30.35in /  1027.7hPa Calm     55% 0.00in /  0mm 0.0 W/m2
01:03 58.8 °F /  14.9 °C 42.6 °F /  5.9 °C 30.35in /  1027.7hPa Calm   1.0mph /  1.6km/h 55% 0.00in /  0mm 0.0 W/m2
01:09 58.6 °F /  14.8 °C 43.0 °F /  6.1 °C 30.35in /  1027.7hPa Calm     56% 0.00in /  0mm 0.0 W/m2
01:15 58.6 °F /  14.8 °C 43.0 °F /  6.1 °C 30.35in /  1027.7hPa Calm     56% 0.00in /  0mm 0.0 W/m2
01:21 58.5 °F /  14.7 °C 42.8 °F /  6 °C 30.35in /  1027.7hPa Calm     56% 0.00in /  0mm 0.0 W/m2
01:27 58.3 °F /  14.6 °C 42.6 °F /  5.9 °C 30.35in /  1027.7hPa Calm   1.0mph /  1.6km/h 56% 0.00in /  0mm 0.0 W/m2
01:33 57.9 °F /  14.4 °C 42.3 °F /  5.7 °C 30.35in /  1027.7hPa Calm   1.0mph /  1.6km/h 56% 0.00in /  0mm 0.0 W/m2
01:39 58.1 °F /  14.5 °C 42.4 °F /  5.8 °C 30.35in /  1027.7hPa Calm     56% 0.00in /  0mm 0.0 W/m2
01:46 58.3 °F /  14.6 °C 42.6 °F /  5.9 °C 30.35in /  1027.7hPa Calm   3.0mph /  4.8km/h 56% 0.00in /  0mm 0.0 W/m2
01:52 58.3 °F /  14.6 °C 42.6 °F /  5.9 °C 30.34in /  1027.3hPa Calm   2.0mph /  3.2km/h 56% 0.00in /  0mm 0.0 W/m2
01:58 58.3 °F /  14.6 °C 42.6 °F /  5.9 °C 30.34in /  1027.3hPa Calm   1.0mph /  1.6km/h 56% 0.00in /  0mm 0.0 W/m2
02:04 58.3 °F /  14.6 °C 42.6 °F /  5.9 °C 30.34in /  1027.3hPa Calm     56% 0.00in /  0mm 0.0 W/m2
02:10 57.7 °F /  14.3 °C 42.6 °F /  5.9 °C 30.34in /  1027.3hPa Calm     57% 0.00in /  0mm 0.0 W/m2
02:16 57.6 °F /  14.2 °C 42.4 °F /  5.8 °C 30.34in /  1027.3hPa Calm   2.0mph /  3.2km/h 57% 0.00in /  0mm 0.0 W/m2
02:22 57.6 °F /  14.2 °C 42.4 °F /  5.8 °C 30.34in /  1027.3hPa NE 4.0mph /  6.4km/h 5.0mph /  8km/h 57% 0.00in /  0mm 0.0 W/m2
02:28 57.7 °F /  14.3 °C 42.6 °F /  5.9 °C 30.34in /  1027.3hPa ENE 0.9mph /  1.4km/h 5.0mph /  8km/h 57% 0.00in /  0mm 0.0 W/m2
02:35 57.9 °F /  14.4 °C 42.8 °F /  6 °C 30.34in /  1027.3hPa ENE 0.9mph /  1.4km/h 3.0mph /  4.8km/h 57% 0.00in /  0mm 0.0 W/m2
02:41 58.3 °F /  14.6 °C 43.2 °F /  6.2 °C 30.34in /  1027.3hPa East 0.9mph /  1.4km/h 1.0mph /  1.6km/h 57% 0.00in /  0mm 0.0 W/m2
02:47 58.3 °F /  14.6 °C 42.6 °F /  5.9 °C 30.34in /  1027.3hPa Calm   3.0mph /  4.8km/h 56% 0.00in /  0mm 0.0 W/m2
02:53 58.3 °F /  14.6 °C 42.6 °F /  5.9 °C 30.34in /  1027.3hPa Calm   3.0mph /  4.8km/h 56% 0.00in /  0mm 0.0 W/m2
02:59 58.3 °F /  14.6 °C 42.6 °F /  5.9 °C 30.34in /  1027.3hPa Calm   3.0mph /  4.8km/h 56% 0.00in /  0mm 0.0 W/m2
03:05 58.3 °F /  14.6 °C 42.6 °F /  5.9 °C 30.34in /  1027.3hPa Calm   3.0mph /  4.8km/h 56% 0.00in /  0mm 0.0 W/m2
03:11 57.9 °F /  14.4 °C 42.8 °F /  6 °C 30.34in /  1027.3hPa Calm   3.0mph /  4.8km/h 57% 0.00in /  0mm 0.0 W/m2
03:18 57.9 °F /  14.4 °C 42.8 °F /  6 °C 30.34in /  1027.3hPa Calm   1.0mph /  1.6km/h 57% 0.00in /  0mm 0.0 W/m2
03:24 57.9 °F /  14.4 °C 42.8 °F /  6 °C 30.34in /  1027.3hPa Calm   3.0mph /  4.8km/h 57% 0.00in /  0mm 0.0 W/m2
03:30 57.9 °F /  14.4 °C 42.8 °F /  6 °C 30.34in /  1027.3hPa Calm   1.0mph /  1.6km/h 57% 0.00in /  0mm 0.0 W/m2
03:36 57.9 °F /  14.4 °C 42.8 °F /  6 °C 30.34in /  1027.3hPa Calm     57% 0.00in /  0mm 0.0 W/m2
03:42 57.7 °F /  14.3 °C 43.0 °F /  6.1 °C 30.35in /  1027.7hPa Calm     58% 0.00in /  0mm 0.0 W/m2
03:48 57.6 °F /  14.2 °C 43.0 °F /  6.1 °C 30.35in /  1027.7hPa Calm   1.0mph /  1.6km/h 58% 0.00in /  0mm 0.0 W/m2
03:54 57.6 °F /  14.2 °C 43.3 °F /  6.3 °C 30.35in /  1027.7hPa Calm   2.0mph /  3.2km/h 59% 0.00in /  0mm 0.0 W/m2
04:01 57.4 °F /  14.1 °C 43.2 °F /  6.2 °C 30.35in /  1027.7hPa Calm   1.0mph /  1.6km/h 59% 0.00in /  0mm 0.0 W/m2
04:07 57.4 °F /  14.1 °C 43.7 °F /  6.5 °C 30.35in /  1027.7hPa Calm     60% 0.00in /  0mm 0.0 W/m2
04:13 57.0 °F /  13.9 °C 43.7 °F /  6.5 °C 30.35in /  1027.7hPa Calm     61% 0.00in /  0mm 0.0 W/m2
04:19 56.7 °F /  13.7 °C 43.3 °F /  6.3 °C 30.35in /  1027.7hPa Calm   1.0mph /  1.6km/h 61% 0.00in /  0mm 0.0 W/m2
04:25 56.7 °F /  13.7 °C 43.3 °F /  6.3 °C 30.35in /  1027.7hPa NE 0.9mph /  1.4km/h 2.0mph /  3.2km/h 61% 0.00in /  0mm 0.0 W/m2
04:31 56.7 °F /  13.7 °C 43.3 °F /  6.3 °C 30.35in /  1027.7hPa Calm   2.0mph /  3.2km/h 61% 0.00in /  0mm 0.0 W/m2
04:37 56.8 °F /  13.8 °C 43.9 °F /  6.6 °C 30.35in /  1027.7hPa Calm   4.0mph /  6.4km/h 62% 0.00in /  0mm 0.0 W/m2
04:43 57.0 °F /  13.9 °C 44.1 °F /  6.7 °C 30.35in /  1027.7hPa ENE 0.9mph /  1.4km/h 1.0mph /  1.6km/h 62% 0.00in /  0mm 0.0 W/m2
04:50 57.0 °F /  13.9 °C 44.1 °F /  6.7 °C 30.35in /  1027.7hPa ENE 0.9mph /  1.4km/h 2.0mph /  3.2km/h 62% 0.00in /  0mm 0.0 W/m2
04:56 57.0 °F /  13.9 °C 44.1 °F /  6.7 °C 30.35in /  1027.7hPa ENE 0.9mph /  1.4km/h 5.0mph /  8km/h 62% 0.00in /  0mm 0.0 W/m2
05:02 57.2 °F /  14 °C 44.2 °F /  6.8 °C 30.35in /  1027.7hPa Calm   1.0mph /  1.6km/h 62% 0.00in /  0mm 0.0 W/m2
05:08 57.0 °F /  13.9 °C 44.1 °F /  6.7 °C 30.35in /  1027.7hPa Calm   1.0mph /  1.6km/h 62% 0.00in /  0mm 0.0 W/m2
05:14 57.0 °F /  13.9 °C 44.1 °F /  6.7 °C 30.35in /  1027.7hPa North 0.9mph /  1.4km/h 2.0mph /  3.2km/h 62% 0.00in /  0mm 0.0 W/m2
05:20 57.0 °F /  13.9 °C 44.1 °F /  6.7 °C 30.36in /  1028hPa Calm   2.0mph /  3.2km/h 62% 0.00in /  0mm 0.0 W/m2
05:26 57.0 °F /  13.9 °C 44.1 °F /  6.7 °C 30.35in /  1027.7hPa Calm   3.0mph /  4.8km/h 62% 0.00in /  0mm 0.0 W/m2
05:32 57.2 °F /  14 °C 44.2 °F /  6.8 °C 30.36in /  1028hPa Calm   2.0mph /  3.2km/h 62% 0.00in /  0mm 0.0 W/m2
05:39 57.4 °F /  14.1 °C 44.4 °F /  6.9 °C 30.36in /  1028hPa ENE 2.0mph /  3.2km/h 2.0mph /  3.2km/h 62% 0.00in /  0mm 0.0 W/m2
05:45 57.4 °F /  14.1 °C 44.4 °F /  6.9 °C 30.36in /  1028hPa ENE 0.9mph /  1.4km/h 4.0mph /  6.4km/h 62% 0.00in /  0mm 0.0 W/m2
05:51 57.4 °F /  14.1 °C 44.4 °F /  6.9 °C 30.36in /  1028hPa SE 0.9mph /  1.4km/h 5.0mph /  8km/h 62% 0.00in /  0mm 0.0 W/m2
05:57 57.4 °F /  14.1 °C 44.4 °F /  6.9 °C 30.36in /  1028hPa ENE 2.9mph /  4.7km/h 4.0mph /  6.4km/h 62% 0.00in /  0mm 0.0 W/m2
06:03 57.4 °F /  14.1 °C 45.0 °F /  7.2 °C 30.36in /  1028hPa ENE 0.9mph /  1.4km/h 2.0mph /  3.2km/h 63% 0.00in /  0mm 5.0 W/m2
06:09 57.4 °F /  14.1 °C 45.0 °F /  7.2 °C 30.36in /  1028hPa Calm   1.0mph /  1.6km/h 63% 0.00in /  0mm 9.0 W/m2
06:15 57.4 °F /  14.1 °C 45.0 °F /  7.2 °C 30.36in /  1028hPa East 2.0mph /  3.2km/h 6.0mph /  9.7km/h 63% 0.00in /  0mm 12.0 W/m2
06:22 57.6 °F /  14.2 °C 45.1 °F /  7.3 °C 30.37in /  1028.3hPa NE 2.0mph /  3.2km/h 2.0mph /  3.2km/h 63% 0.00in /  0mm 16.0 W/m2
06:28 57.6 °F /  14.2 °C 45.1 °F /  7.3 °C 30.36in /  1028hPa NE 0.9mph /  1.4km/h 1.0mph /  1.6km/h 63% 0.00in /  0mm 19.0 W/m2
06:34 57.6 °F /  14.2 °C 45.5 °F /  7.5 °C 30.36in /  1028hPa East 0.9mph /  1.4km/h 3.0mph /  4.8km/h 64% 0.00in /  0mm 21.0 W/m2
06:40 57.7 °F /  14.3 °C 45.7 °F /  7.6 °C 30.37in /  1028.3hPa North 2.9mph /  4.7km/h 4.0mph /  6.4km/h 64% 0.00in /  0mm 25.0 W/m2
06:46 57.9 °F /  14.4 °C 45.9 °F /  7.7 °C 30.37in /  1028.3hPa East 2.0mph /  3.2km/h 4.0mph /  6.4km/h 64% 0.00in /  0mm 26.0 W/m2
06:52 58.1 °F /  14.5 °C 46.0 °F /  7.8 °C 30.37in /  1028.3hPa Calm   4.0mph /  6.4km/h 64% 0.00in /  0mm 28.0 W/m2
07:01 58.6 °F /  14.8 °C 46.6 °F /  8.1 °C 30.37in /  1028.3hPa ENE 0.9mph /  1.4km/h 4.0mph /  6.4km/h 64% 0.00in /  0mm 32.0 W/m2
07:07 59.0 °F /  15 °C 46.8 °F /  8.2 °C 30.37in /  1028.3hPa ENE 0.9mph /  1.4km/h 3.0mph /  4.8km/h 64% 0.00in /  0mm 33.0 W/m2
07:13 59.5 °F /  15.3 °C 46.9 °F /  8.3 °C 30.37in /  1028.3hPa Calm   5.0mph /  8km/h 63% 0.00in /  0mm 35.0 W/m2
07:19 60.3 °F /  15.7 °C 47.1 °F /  8.4 °C 30.37in /  1028.3hPa East 0.9mph /  1.4km/h 3.0mph /  4.8km/h 62% 0.00in /  0mm 37.0 W/m2
07:25 61.0 °F /  16.1 °C 48.4 °F /  9.1 °C 30.37in /  1028.3hPa Calm   2.0mph /  3.2km/h 63% 0.00in /  0mm 39.0 W/m2
07:31 61.3 °F /  16.3 °C 48.2 °F /  9 °C 30.37in /  1028.3hPa ESE 2.0mph /  3.2km/h 2.0mph /  3.2km/h 62% 0.00in /  0mm 40.0 W/m2
07:37 62.2 °F /  16.8 °C 48.6 °F /  9.2 °C 30.37in /  1028.3hPa Calm   3.0mph /  4.8km/h 61% 0.00in /  0mm 40.0 W/m2
07:44 63.0 °F /  17.2 °C 48.9 °F /  9.4 °C 30.37in /  1028.3hPa Calm   1.0mph /  1.6km/h 60% 0.00in /  0mm 42.0 W/m2
07:50 63.5 °F /  17.5 °C 48.4 °F /  9.1 °C 30.37in /  1028.3hPa Calm     58% 0.00in /  0mm 44.0 W/m2
07:56 64.6 °F /  18.1 °C 48.0 °F /  8.9 °C 30.38in /  1028.7hPa ENE 4.0mph /  6.4km/h 4.0mph /  6.4km/h 55% 0.00in /  0mm 47.0 W/m2
08:02 65.8 °F /  18.8 °C 48.2 °F /  9 °C 30.38in /  1028.7hPa NNE 0.9mph /  1.4km/h 3.0mph /  4.8km/h 53% 0.00in /  0mm 49.0 W/m2
08:08 66.9 °F /  19.4 °C 48.2 °F /  9 °C 30.38in /  1028.7hPa NE 4.0mph /  6.4km/h 5.0mph /  8km/h 51% 0.00in /  0mm 51.0 W/m2
08:14 67.8 °F /  19.9 °C 48.0 °F /  8.9 °C 30.38in /  1028.7hPa Calm   1.0mph /  1.6km/h 49% 0.00in /  0mm 54.0 W/m2
08:20 68.5 °F /  20.3 °C 47.5 °F /  8.6 °C 30.38in /  1028.7hPa NNW 2.9mph /  4.7km/h 3.0mph /  4.8km/h 47% 0.00in /  0mm 54.0 W/m2
08:26 69.1 °F /  20.6 °C 48.6 °F /  9.2 °C 30.38in /  1028.7hPa NNW 0.9mph /  1.4km/h 1.0mph /  1.6km/h 48% 0.00in /  0mm 56.0 W/m2
08:32 69.4 °F /  20.8 °C 48.4 °F /  9.1 °C 30.38in /  1028.7hPa Calm   1.0mph /  1.6km/h 47% 0.00in /  0mm 58.0 W/m2
08:39 70.2 °F /  21.2 °C 48.4 °F /  9.1 °C 30.38in /  1028.7hPa Calm   3.0mph /  4.8km/h 46% 0.00in /  0mm 63.0 W/m2
08:45 70.9 °F /  21.6 °C 48.6 °F /  9.2 °C 30.38in /  1028.7hPa Calm   2.0mph /  3.2km/h 45% 0.00in /  0mm 577.0 W/m2
08:51 71.8 °F /  22.1 °C 49.8 °F /  9.9 °C 30.38in /  1028.7hPa NE 2.0mph /  3.2km/h 3.0mph /  4.8km/h 46% 0.00in /  0mm 599.0 W/m2
08:57 73.0 °F /  22.8 °C 48.6 °F /  9.2 °C 30.38in /  1028.7hPa Calm   2.0mph /  3.2km/h 42% 0.00in /  0mm 615.0 W/m2
09:03 73.9 °F /  23.3 °C 49.5 °F /  9.7 °C 30.37in /  1028.3hPa Calm     42% 0.00in /  0mm 633.0 W/m2
09:09 75.0 °F /  23.9 °C 48.4 °F /  9.1 °C 30.37in /  1028.3hPa North 4.9mph /  7.9km/h 8.0mph /  12.9km/h 39% 0.00in /  0mm 654.0 W/m2
09:15 75.9 °F /  24.4 °C 48.6 °F /  9.2 °C 30.37in /  1028.3hPa NNE 4.9mph /  7.9km/h 7.0mph /  11.3km/h 38% 0.00in /  0mm 679.0 W/m2
09:22 76.5 °F /  24.7 °C 48.9 °F /  9.4 °C 30.37in /  1028.3hPa NNW 4.0mph /  6.4km/h 9.0mph /  14.5km/h 38% 0.00in /  0mm 696.0 W/m2
09:28 76.6 °F /  24.8 °C 48.4 °F /  9.1 °C 30.37in /  1028.3hPa ESE 2.0mph /  3.2km/h 8.0mph /  12.9km/h 37% 0.00in /  0mm 714.0 W/m2
09:34 77.2 °F /  25.1 °C 47.5 °F /  8.6 °C 30.37in /  1028.3hPa NE 2.0mph /  3.2km/h 2.0mph /  3.2km/h 35% 0.00in /  0mm 722.0 W/m2
09:40 77.5 °F /  25.3 °C 48.6 °F /  9.2 °C 30.36in /  1028hPa Calm     36% 0.00in /  0mm 735.0 W/m2
09:46 77.5 °F /  25.3 °C 47.7 °F /  8.7 °C 30.36in /  1028hPa NE 4.0mph /  6.4km/h 10.0mph /  16.1km/h 35% 0.00in /  0mm 756.0 W/m2
09:52 78.3 °F /  25.7 °C 48.4 °F /  9.1 °C 30.36in /  1028hPa NNE 6.0mph /  9.7km/h 7.0mph /  11.3km/h 35% 0.00in /  0mm 775.0 W/m2
09:58 78.8 °F /  26 °C 47.3 °F /  8.5 °C 30.36in /  1028hPa NNW 4.0mph /  6.4km/h 4.0mph /  6.4km/h 33% 0.00in /  0mm 791.0 W/m2
10:04 79.3 °F /  26.3 °C 47.7 °F /  8.7 °C 30.36in /  1028hPa SE 4.9mph /  7.9km/h 7.0mph /  11.3km/h 33% 0.00in /  0mm 795.0 W/m2
10:10 79.2 °F /  26.2 °C 47.7 °F /  8.7 °C 30.36in /  1028hPa NNE 6.0mph /  9.7km/h 8.0mph /  12.9km/h 33% 0.00in /  0mm 803.0 W/m2
10:17 79.3 °F /  26.3 °C 48.6 °F /  9.2 °C 30.36in /  1028hPa ESE 4.9mph /  7.9km/h 9.0mph /  14.5km/h 34% 0.00in /  0mm 824.0 W/m2
10:23 79.5 °F /  26.4 °C 47.1 °F /  8.4 °C 30.36in /  1028hPa ENE 2.9mph /  4.7km/h 7.0mph /  11.3km/h 32% 0.00in /  0mm 828.0 W/m2
10:29 79.9 °F /  26.6 °C 46.6 °F /  8.1 °C 30.35in /  1027.7hPa Calm   5.0mph /  8km/h 31% 0.00in /  0mm 840.0 W/m2
10:35 80.1 °F /  26.7 °C 47.5 °F /  8.6 °C 30.35in /  1027.7hPa NE 0.9mph /  1.4km/h 9.0mph /  14.5km/h 32% 0.00in /  0mm 854.0 W/m2
10:41 80.2 °F /  26.8 °C 47.7 °F /  8.7 °C 30.35in /  1027.7hPa NNE 2.9mph /  4.7km/h 6.0mph /  9.7km/h 32% 0.00in /  0mm 856.0 W/m2
10:47 80.4 °F /  26.9 °C 47.8 °F /  8.8 °C 30.35in /  1027.7hPa SE 4.0mph /  6.4km/h 9.0mph /  14.5km/h 32% 0.00in /  0mm 870.0 W/m2
10:53 80.8 °F /  27.1 °C 48.2 °F /  9 °C 30.35in /  1027.7hPa ENE 8.1mph /  13km/h 11.0mph /  17.7km/h 32% 0.00in /  0mm 870.0 W/m2
10:59 81.0 °F /  27.2 °C 48.4 °F /  9.1 °C 30.35in /  1027.7hPa Calm   2.0mph /  3.2km/h 32% 0.00in /  0mm 868.0 W/m2
11:06 81.3 °F /  27.4 °C 46.9 °F /  8.3 °C 30.34in /  1027.3hPa East 4.9mph /  7.9km/h 10.0mph /  16.1km/h 30% 0.00in /  0mm 893.0 W/m2
11:12 81.1 °F /  27.3 °C 47.7 °F /  8.7 °C 30.34in /  1027.3hPa South 4.0mph /  6.4km/h 8.0mph /  12.9km/h 31% 0.00in /  0mm 888.0 W/m2
11:18 81.1 °F /  27.3 °C 47.7 °F /  8.7 °C 30.34in /  1027.3hPa WSW 2.0mph /  3.2km/h 5.0mph /  8km/h 31% 0.00in /  0mm 896.0 W/m2
11:24 81.3 °F /  27.4 °C 46.9 °F /  8.3 °C 30.34in /  1027.3hPa SE 2.0mph /  3.2km/h 9.0mph /  14.5km/h 30% 0.00in /  0mm 902.0 W/m2
11:30 81.3 °F /  27.4 °C 46.0 °F /  7.8 °C 30.34in /  1027.3hPa North 4.0mph /  6.4km/h 6.0mph /  9.7km/h 29% 0.00in /  0mm 914.0 W/m2
11:36 81.9 °F /  27.7 °C 47.3 °F /  8.5 °C 30.34in /  1027.3hPa ESE 4.9mph /  7.9km/h 7.0mph /  11.3km/h 30% 0.00in /  0mm 905.0 W/m2
11:42 82.0 °F /  27.8 °C 46.6 °F /  8.1 °C 30.33in /  1027hPa NE 2.0mph /  3.2km/h 7.0mph /  11.3km/h 29% 0.00in /  0mm 909.0 W/m2
11:49 82.0 °F /  27.8 °C 46.6 °F /  8.1 °C 30.33in /  1027hPa NE 4.0mph /  6.4km/h 7.0mph /  11.3km/h 29% 0.00in /  0mm 911.0 W/m2
11:55 82.0 °F /  27.8 °C 45.7 °F /  7.6 °C 30.33in /  1027hPa NNE 8.1mph /  13km/h 10.0mph /  16.1km/h 28% 0.00in /  0mm 911.0 W/m2
12:01 82.6 °F /  28.1 °C 45.1 °F /  7.3 °C 30.33in /  1027hPa ESE 8.1mph /  13km/h 9.0mph /  14.5km/h 27% 0.00in /  0mm 916.0 W/m2
12:07 82.6 °F /  28.1 °C 45.1 °F /  7.3 °C 30.32in /  1026.6hPa NNE 4.0mph /  6.4km/h 7.0mph /  11.3km/h 27% 0.00in /  0mm 914.0 W/m2
12:13 83.3 °F /  28.5 °C 45.9 °F /  7.7 °C 30.32in /  1026.6hPa NNW 2.9mph /  4.7km/h 5.0mph /  8km/h 27% 0.00in /  0mm 904.0 W/m2
12:19 83.5 °F /  28.6 °C 45.0 °F /  7.2 °C 30.32in /  1026.6hPa East 6.0mph /  9.7km/h 6.0mph /  9.7km/h 26% 0.00in /  0mm 900.0 W/m2
12:25 83.5 °F /  28.6 °C 43.9 °F /  6.6 °C 30.32in /  1026.6hPa NNW 0.9mph /  1.4km/h 4.0mph /  6.4km/h 25% 0.00in /  0mm 898.0 W/m2
12:31 83.7 °F /  28.7 °C 45.1 °F /  7.3 °C 30.32in /  1026.6hPa East 6.0mph /  9.7km/h 7.0mph /  11.3km/h 26% 0.00in /  0mm 895.0 W/m2
12:38 84.0 °F /  28.9 °C 45.5 °F /  7.5 °C 30.32in /  1026.6hPa NE 0.9mph /  1.4km/h 3.0mph /  4.8km/h 26% 0.00in /  0mm 882.0 W/m2
12:44 84.0 °F /  28.9 °C 44.4 °F /  6.9 °C 30.32in /  1026.6hPa NNE 4.0mph /  6.4km/h 7.0mph /  11.3km/h 25% 0.00in /  0mm 875.0 W/m2
12:50 83.8 °F /  28.8 °C 44.2 °F /  6.8 °C 30.32in /  1026.6hPa NE 4.0mph /  6.4km/h 6.0mph /  9.7km/h 25% 0.00in /  0mm 874.0 W/m2
12:56 84.0 °F /  28.9 °C 45.5 °F /  7.5 °C 30.31in /  1026.3hPa ESE 2.0mph /  3.2km/h 4.0mph /  6.4km/h 26% 0.00in /  0mm 865.0 W/m2
13:02 84.2 °F /  29 °C 45.7 °F /  7.6 °C 30.31in /  1026.3hPa ESE 2.9mph /  4.7km/h 6.0mph /  9.7km/h 26% 0.00in /  0mm 860.0 W/m2
13:08 84.0 °F /  28.9 °C 45.5 °F /  7.5 °C 30.31in /  1026.3hPa South 2.9mph /  4.7km/h 9.0mph /  14.5km/h 26% 0.00in /  0mm 849.0 W/m2
13:14 83.8 °F /  28.8 °C 45.3 °F /  7.4 °C 30.30in /  1026hPa Calm   4.0mph /  6.4km/h 26% 0.00in /  0mm 831.0 W/m2
13:21 84.4 °F /  29.1 °C 43.7 °F /  6.5 °C 30.30in /  1026hPa ENE 10.1mph /  16.3km/h 10.1mph /  16.3km/h 24% 0.00in /  0mm 824.0 W/m2
13:27 84.7 °F /  29.3 °C 45.0 °F /  7.2 °C 30.30in /  1026hPa Calm   5.0mph /  8km/h 25% 0.00in /  0mm 817.0 W/m2
13:33 85.3 °F /  29.6 °C 45.5 °F /  7.5 °C 30.30in /  1026hPa ENE 2.0mph /  3.2km/h 7.0mph /  11.3km/h 25% 0.00in /  0mm 802.0 W/m2
13:39 85.3 °F /  29.6 °C 44.4 °F /  6.9 °C 30.30in /  1026hPa ENE 4.0mph /  6.4km/h 4.0mph /  6.4km/h 24% 0.00in /  0mm 795.0 W/m2
13:45 85.5 °F /  29.7 °C 44.6 °F /  7 °C 30.30in /  1026hPa Calm   4.0mph /  6.4km/h 24% 0.00in /  0mm 780.0 W/m2
13:51 85.5 °F /  29.7 °C 44.6 °F /  7 °C 30.30in /  1026hPa SE 4.0mph /  6.4km/h 7.0mph /  11.3km/h 24% 0.00in /  0mm 761.0 W/m2
13:57 85.5 °F /  29.7 °C 44.6 °F /  7 °C 30.29in /  1025.6hPa Calm   4.0mph /  6.4km/h 24% 0.00in /  0mm 737.0 W/m2
14:05 85.6 °F /  29.8 °C 45.9 °F /  7.7 °C 30.29in /  1025.6hPa Calm   8.0mph /  12.9km/h 25% 0.00in /  0mm 728.0 W/m2
15:45 85.8 °F /  29.9 °C 44.8 °F /  7.1 °C 30.28in /  1025.3hPa North 4.9mph /  7.9km/h 5.0mph /  8km/h 24% 0.00in /  0mm 413.0 W/m2
15:51 85.8 °F /  29.9 °C 43.7 °F /  6.5 °C 30.28in /  1025.3hPa ENE 4.0mph /  6.4km/h 8.0mph /  12.9km/h 23% 0.00in /  0mm 394.0 W/m2
15:58 85.5 °F /  29.7 °C 44.6 °F /  7 °C 30.28in /  1025.3hPa Calm   2.0mph /  3.2km/h 24% 0.00in /  0mm 369.0 W/m2
16:04 85.5 °F /  29.7 °C 44.6 °F /  7 °C 30.27in /  1024.9hPa ESE 0.9mph /  1.4km/h 4.0mph /  6.4km/h 24% 0.00in /  0mm 348.0 W/m2
16:10 85.8 °F /  29.9 °C 43.7 °F /  6.5 °C 30.27in /  1024.9hPa SE 2.9mph /  4.7km/h 4.0mph /  6.4km/h 23% 0.00in /  0mm 320.0 W/m2
16:16 86.2 °F /  30.1 °C 44.1 °F /  6.7 °C 30.27in /  1024.9hPa Calm   2.0mph /  3.2km/h 23% 0.00in /  0mm 299.0 W/m2
16:22 86.2 °F /  30.1 °C 44.1 °F /  6.7 °C 30.27in /  1024.9hPa East 2.9mph /  4.7km/h 6.0mph /  9.7km/h 23% 0.00in /  0mm 276.0 W/m2
16:28 85.6 °F /  29.8 °C 43.5 °F /  6.4 °C 30.28in /  1025.3hPa Calm   5.0mph /  8km/h 23% 0.00in /  0mm 253.0 W/m2
16:34 85.5 °F /  29.7 °C 43.5 °F /  6.4 °C 30.28in /  1025.3hPa ENE 2.9mph /  4.7km/h 5.0mph /  8km/h 23% 0.00in /  0mm 229.0 W/m2
16:40 84.9 °F /  29.4 °C 44.1 °F /  6.7 °C 30.28in /  1025.3hPa East 4.0mph /  6.4km/h 5.0mph /  8km/h 24% 0.00in /  0mm 204.0 W/m2
16:46 84.9 °F /  29.4 °C 44.1 °F /  6.7 °C 30.28in /  1025.3hPa Calm   3.0mph /  4.8km/h 24% 0.00in /  0mm 179.0 W/m2
16:53 84.9 °F /  29.4 °C 44.1 °F /  6.7 °C 30.28in /  1025.3hPa ENE 0.9mph /  1.4km/h 4.0mph /  6.4km/h 24% 0.00in /  0mm 156.0 W/m2
16:59 84.6 °F /  29.2 °C 43.9 °F /  6.6 °C 30.28in /  1025.3hPa NE 2.0mph /  3.2km/h 4.0mph /  6.4km/h 24% 0.00in /  0mm 132.0 W/m2
17:05 83.5 °F /  28.6 °C 43.9 °F /  6.6 °C 30.28in /  1025.3hPa North 2.9mph /  4.7km/h 3.0mph /  4.8km/h 25% 0.00in /  0mm 70.0 W/m2
17:11 82.9 °F /  28.3 °C 43.5 °F /  6.4 °C 30.28in /  1025.3hPa Calm   4.0mph /  6.4km/h 25% 0.00in /  0mm 40.0 W/m2
17:17 82.2 °F /  27.9 °C 43.0 °F /  6.1 °C 30.28in /  1025.3hPa NNW 2.0mph /  3.2km/h 4.0mph /  6.4km/h 25% 0.00in /  0mm 28.0 W/m2
17:23 81.7 °F /  27.6 °C 42.4 °F /  5.8 °C 30.28in /  1025.3hPa North 0.9mph /  1.4km/h 4.0mph /  6.4km/h 25% 0.00in /  0mm 21.0 W/m2
17:29 81.1 °F /  27.3 °C 43.0 °F /  6.1 °C 30.28in /  1025.3hPa North 0.9mph /  1.4km/h 1.0mph /  1.6km/h 26% 0.00in /  0mm 18.0 W/m2
17:35 80.8 °F /  27.1 °C 43.7 °F /  6.5 °C 30.29in /  1025.6hPa Calm     27% 0.00in /  0mm 12.0 W/m2
17:41 80.4 °F /  26.9 °C 44.2 °F /  6.8 °C 30.29in /  1025.6hPa Calm   1.0mph /  1.6km/h 28% 0.00in /  0mm 9.0 W/m2
17:48 79.9 °F /  26.6 °C 43.9 °F /  6.6 °C 30.29in /  1025.6hPa Calm     28% 0.00in /  0mm 5.0 W/m2
17:54 79.2 °F /  26.2 °C 44.2 °F /  6.8 °C 30.29in /  1025.6hPa Calm     29% 0.00in /  0mm 0.0 W/m2
18:00 78.4 °F /  25.8 °C 44.4 °F /  6.9 °C 30.30in /  1026hPa Calm   2.0mph /  3.2km/h 30% 0.00in /  0mm 0.0 W/m2
18:06 77.5 °F /  25.3 °C 44.6 °F /  7 °C 30.30in /  1026hPa Calm   1.0mph /  1.6km/h 31% 0.00in /  0mm 0.0 W/m2
18:12 76.6 °F /  24.8 °C 43.7 °F /  6.5 °C 30.30in /  1026hPa Calm   1.0mph /  1.6km/h 31% 0.00in /  0mm 0.0 W/m2
18:18 75.9 °F /  24.4 °C 43.9 °F /  6.6 °C 30.30in /  1026hPa Calm   1.0mph /  1.6km/h 32% 0.00in /  0mm 0.0 W/m2
18:24 75.4 °F /  24.1 °C 44.2 °F /  6.8 °C 30.30in /  1026hPa Calm   1.0mph /  1.6km/h 33% 0.00in /  0mm 0.0 W/m2
18:30 74.7 °F /  23.7 °C 44.4 °F /  6.9 °C 30.30in /  1026hPa Calm     34% 0.00in /  0mm 0.0 W/m2
18:37 74.1 °F /  23.4 °C 43.9 °F /  6.6 °C 30.31in /  1026.3hPa East 0.9mph /  1.4km/h 1.0mph /  1.6km/h 34% 0.00in /  0mm 0.0 W/m2
18:43 73.6 °F /  23.1 °C 44.2 °F /  6.8 °C 30.31in /  1026.3hPa Calm   1.0mph /  1.6km/h 35% 0.00in /  0mm 0.0 W/m2
18:49 73.0 °F /  22.8 °C 44.4 °F /  6.9 °C 30.31in /  1026.3hPa Calm   1.0mph /  1.6km/h 36% 0.00in /  0mm 0.0 W/m2
18:55 72.7 °F /  22.6 °C 44.2 °F /  6.8 °C 30.31in /  1026.3hPa Calm   1.0mph /  1.6km/h 36% 0.00in /  0mm 0.0 W/m2
19:01 72.3 °F /  22.4 °C 43.9 °F /  6.6 °C 30.31in /  1026.3hPa Calm   1.0mph /  1.6km/h 36% 0.00in /  0mm 0.0 W/m2
19:07 72.0 °F /  22.2 °C 44.2 °F /  6.8 °C 30.32in /  1026.6hPa Calm     37% 0.00in /  0mm 0.0 W/m2
19:13 71.8 °F /  22.1 °C 44.8 °F /  7.1 °C 30.32in /  1026.6hPa Calm     38% 0.00in /  0mm 0.0 W/m2
19:20 71.4 °F /  21.9 °C 44.4 °F /  6.9 °C 30.32in /  1026.6hPa Calm     38% 0.00in /  0mm 0.0 W/m2
19:26 71.1 °F /  21.7 °C 44.8 °F /  7.1 °C 30.33in /  1027hPa Calm     39% 0.00in /  0mm 0.0 W/m2
19:32 70.7 °F /  21.5 °C 44.6 °F /  7 °C 30.32in /  1026.6hPa Calm   1.0mph /  1.6km/h 39% 0.00in /  0mm 0.0 W/m2
19:38 70.3 °F /  21.3 °C 45.0 °F /  7.2 °C 30.33in /  1027hPa Calm   1.0mph /  1.6km/h 40% 0.00in /  0mm 0.0 W/m2
19:44 70.2 °F /  21.2 °C 45.3 °F /  7.4 °C 30.33in /  1027hPa Calm   3.0mph /  4.8km/h 41% 0.00in /  0mm 0.0 W/m2
19:50 70.2 °F /  21.2 °C 45.3 °F /  7.4 °C 30.34in /  1027.3hPa Calm   1.0mph /  1.6km/h 41% 0.00in /  0mm 0.0 W/m2
19:56 70.0 °F /  21.1 °C 45.1 °F /  7.3 °C 30.34in /  1027.3hPa East 2.0mph /  3.2km/h 2.0mph /  3.2km/h 41% 0.00in /  0mm 0.0 W/m2
20:02 70.0 °F /  21.1 °C 45.1 °F /  7.3 °C 30.34in /  1027.3hPa East 0.9mph /  1.4km/h 2.0mph /  3.2km/h 41% 0.00in /  0mm 0.0 W/m2
20:09 69.8 °F /  21 °C 45.0 °F /  7.2 °C 30.34in /  1027.3hPa Calm     41% 0.00in /  0mm 0.0 W/m2
20:15 69.8 °F /  21 °C 45.0 °F /  7.2 °C 30.34in /  1027.3hPa Calm   1.0mph /  1.6km/h 41% 0.00in /  0mm 0.0 W/m2
20:21 69.6 °F /  20.9 °C 45.0 °F /  7.2 °C 30.34in /  1027.3hPa Calm   1.0mph /  1.6km/h 41% 0.00in /  0mm 0.0 W/m2
20:27 69.4 °F /  20.8 °C 44.8 °F /  7.1 °C 30.34in /  1027.3hPa Calm   2.0mph /  3.2km/h 41% 0.00in /  0mm 0.0 W/m2
20:33 69.3 °F /  20.7 °C 44.6 °F /  7 °C 30.35in /  1027.7hPa Calm   1.0mph /  1.6km/h 41% 0.00in /  0mm 0.0 W/m2
20:39 69.1 °F /  20.6 °C 44.4 °F /  6.9 °C 30.35in /  1027.7hPa Calm   1.0mph /  1.6km/h 41% 0.00in /  0mm 0.0 W/m2
20:45 68.9 °F /  20.5 °C 44.8 °F /  7.1 °C 30.35in /  1027.7hPa Calm     42% 0.00in /  0mm 0.0 W/m2
20:51 68.7 °F /  20.4 °C 44.8 °F /  7.1 °C 30.35in /  1027.7hPa East 0.9mph /  1.4km/h 3.0mph /  4.8km/h 42% 0.00in /  0mm 0.0 W/m2
20:58 68.4 °F /  20.2 °C 45.0 °F /  7.2 °C 30.35in /  1027.7hPa Calm   2.0mph /  3.2km/h 43% 0.00in /  0mm 0.0 W/m2
21:04 68.2 °F /  20.1 °C 44.8 °F /  7.1 °C 30.35in /  1027.7hPa Calm   1.0mph /  1.6km/h 43% 0.00in /  0mm 0.0 W/m2
21:10 67.8 °F /  19.9 °C 45.1 °F /  7.3 °C 30.35in /  1027.7hPa Calm   1.0mph /  1.6km/h 44% 0.00in /  0mm 0.0 W/m2
21:16 67.5 °F /  19.7 °C 44.8 °F /  7.1 °C 30.35in /  1027.7hPa Calm     44% 0.00in /  0mm 0.0 W/m2
21:22 67.1 °F /  19.5 °C 45.0 °F /  7.2 °C 30.35in /  1027.7hPa Calm   1.0mph /  1.6km/h 45% 0.00in /  0mm 0.0 W/m2
21:28 66.7 °F /  19.3 °C 45.3 °F /  7.4 °C 30.35in /  1027.7hPa East 0.9mph /  1.4km/h 2.0mph /  3.2km/h 46% 0.00in /  0mm 0.0 W/m2
21:34 66.4 °F /  19.1 °C 45.0 °F /  7.2 °C 30.35in /  1027.7hPa East 4.0mph /  6.4km/h 4.0mph /  6.4km/h 46% 0.00in /  0mm 0.0 W/m2
21:40 66.0 °F /  18.9 °C 45.1 °F /  7.3 °C 30.35in /  1027.7hPa Calm   1.0mph /  1.6km/h 47% 0.00in /  0mm 0.0 W/m2
21:47 65.7 °F /  18.7 °C 45.0 °F /  7.2 °C 30.35in /  1027.7hPa Calm   3.0mph /  4.8km/h 47% 0.00in /  0mm 0.0 W/m2
21:53 65.5 °F /  18.6 °C 44.8 °F /  7.1 °C 30.35in /  1027.7hPa Calm     47% 0.00in /  0mm 0.0 W/m2
21:59 65.5 °F /  18.6 °C 45.3 °F /  7.4 °C 30.35in /  1027.7hPa Calm     48% 0.00in /  0mm 0.0 W/m2
22:05 65.1 °F /  18.4 °C 45.0 °F /  7.2 °C 30.35in /  1027.7hPa Calm   1.0mph /  1.6km/h 48% 0.00in /  0mm 0.0 W/m2
22:11 64.9 °F /  18.3 °C 44.8 °F /  7.1 °C 30.35in /  1027.7hPa Calm   2.0mph /  3.2km/h 48% 0.00in /  0mm 0.0 W/m2
22:17 64.9 °F /  18.3 °C 44.8 °F /  7.1 °C 30.35in /  1027.7hPa SE 0.9mph /  1.4km/h 4.0mph /  6.4km/h 48% 0.00in /  0mm 0.0 W/m2
22:23 64.8 °F /  18.2 °C 44.6 °F /  7 °C 30.35in /  1027.7hPa East 0.9mph /  1.4km/h 2.0mph /  3.2km/h 48% 0.00in /  0mm 0.0 W/m2
22:30 64.8 °F /  18.2 °C 44.6 °F /  7 °C 30.35in /  1027.7hPa Calm   2.0mph /  3.2km/h 48% 0.00in /  0mm 0.0 W/m2
22:36 64.6 °F /  18.1 °C 44.4 °F /  6.9 °C 30.35in /  1027.7hPa Calm   1.0mph /  1.6km/h 48% 0.00in /  0mm 0.0 W/m2
22:42 64.4 °F /  18 °C 44.2 °F /  6.8 °C 30.35in /  1027.7hPa Calm   2.0mph /  3.2km/h 48% 0.00in /  0mm 0.0 W/m2
22:48 64.2 °F /  17.9 °C 44.6 °F /  7 °C 30.34in /  1027.3hPa Calm   2.0mph /  3.2km/h 49% 0.00in /  0mm 0.0 W/m2
22:54 64.0 °F /  17.8 °C 44.4 °F /  6.9 °C 30.34in /  1027.3hPa SE 0.9mph /  1.4km/h 2.0mph /  3.2km/h 49% 0.00in /  0mm 0.0 W/m2
23:00 63.9 °F /  17.7 °C 44.2 °F /  6.8 °C 30.34in /  1027.3hPa East 0.9mph /  1.4km/h 2.0mph /  3.2km/h 49% 0.00in /  0mm 0.0 W/m2
23:06 63.7 °F /  17.6 °C 44.8 °F /  7.1 °C 30.35in /  1027.7hPa Calm   3.0mph /  4.8km/h 50% 0.00in /  0mm 0.0 W/m2
23:12 63.3 °F /  17.4 °C 44.4 °F /  6.9 °C 30.34in /  1027.3hPa Calm     50% 0.00in /  0mm 0.0 W/m2
23:18 63.1 °F /  17.3 °C 44.8 °F /  7.1 °C 30.34in /  1027.3hPa Calm   1.0mph /  1.6km/h 51% 0.00in /  0mm 0.0 W/m2
23:24 63.0 °F /  17.2 °C 44.6 °F /  7 °C 30.34in /  1027.3hPa Calm     51% 0.00in /  0mm 0.0 W/m2
23:30 62.6 °F /  17 °C 44.8 °F /  7.1 °C 30.35in /  1027.7hPa Calm     52% 0.00in /  0mm 0.0 W/m2
23:36 62.4 °F /  16.9 °C 44.6 °F /  7 °C 30.34in /  1027.3hPa Calm   2.0mph /  3.2km/h 52% 0.00in /  0mm 0.0 W/m2
23:42 62.2 °F /  16.8 °C 44.4 °F /  6.9 °C 30.34in /  1027.3hPa ESE 0.9mph /  1.4km/h 3.0mph /  4.8km/h 52% 0.00in /  0mm 0.0 W/m2
23:48 62.1 °F /  16.7 °C 44.8 °F /  7.1 °C 30.34in /  1027.3hPa Calm   3.0mph /  4.8km/h 53% 0.00in /  0mm 0.0 W/m2
23:54 61.9 °F /  16.6 °C 44.6 °F /  7 °C 30.34in /  1027.3hPa Calm   1.0mph /  1.6km/h 53% 0.00in /  0mm 0.0 W/m2
Olympia, Windhoek, Namibia
Compliments of Weather Underground - 3 mb